Havensville, Kansas
Current Conditions -  °F | °C
As of 12:55 PM on Wednesday 26 Nov 2014 (Local Time) from KMYZ Reporting Station
Overcast Overcast  
Wind Chill: 18°   Ceiling: 1900
Heat Index: 32°   Visibility: 10mi
Dew Point: 25°   Wind: 26mph
Humidity: 75%   Direction: 330°NNW
Pressure: 30.13"   Gusts: 31mph
Location:  39.51°N, 96.08°W
Report Text: KMYZ 261855Z AUTO 33023G27KT 10SM OVC019 00/M04 A3013 RMK AO2
Loading
Personal Weather Stations






























Interactive Weather Map New forecast layout! Learn more

10-Day Weather Forecast

Advertisements
Track Severe Weather on mobile